Time;durP1;ratioP1;P1;durP2;ratioP2;P2;SDS_P1;SDS_P2;PMS_P1;PMS_P2;Temp;Humidity;BMP_temperature;BMP_pressure;BME280_temperature;BME280_humidity;BME280_pressure;Samples;Min_cycle;Max_cycle;Signal;HPM_P1;HPM_P2
2022/07/14 00:01:50;;;;;;;11.80;2.90;;;14.10;99.90;;;;;;5012121;28;20100;-71
2022/07/14 00:04:16;;;;;;;11.20;2.80;;;14.10;99.90;;;;;;5010343;28;20069;-71
2022/07/14 00:06:42;;;;;;;10.52;2.60;;;14.10;99.90;;;;;;4994652;28;20533;-72
2022/07/14 00:09:07;;;;;;;12.40;3.03;;;14.10;99.90;;;;;;5010307;28;20081;-71
2022/07/14 00:11:33;;;;;;;13.68;2.95;;;14.10;99.90;;;;;;5044656;28;20049;-71
2022/07/14 00:13:59;;;;;;;14.80;2.90;;;14.00;99.90;;;;;;5008095;28;20129;-71
2022/07/14 00:16:26;;;;;;;13.80;3.65;;;14.00;99.90;;;;;;5028452;28;20561;-71
2022/07/14 00:18:52;;;;;;;11.20;2.85;;;14.00;99.90;;;;;;5027603;28;20092;-71
2022/07/14 00:21:18;;;;;;;10.35;2.75;;;14.00;99.90;;;;;;5044583;28;20060;-71
2022/07/14 00:23:47;;;;;;;10.30;2.78;;;14.00;99.90;;;;;;5006360;28;20092;-71
2022/07/14 00:26:13;;;;;;;15.45;3.63;;;13.90;99.90;;;;;;5011886;28;20615;-71
2022/07/14 00:28:39;;;;;;;11.70;2.30;;;13.90;99.90;;;;;;5009024;28;20066;-71
2022/07/14 00:31:10;;;;;;;12.93;2.97;;;13.90;99.90;;;;;;5043244;28;20084;-71
2022/07/14 00:33:38;;;;;;;8.80;2.50;;;13.90;99.90;;;;;;5026178;28;20476;-71
2022/07/14 00:36:04;;;;;;;9.25;2.45;;;13.80;99.90;;;;;;4993424;28;20072;-71
2022/07/14 00:38:30;;;;;;;10.98;2.60;;;13.80;99.90;;;;;;5042419;28;20069;-71
2022/07/14 00:40:56;;;;;;;12.35;3.05;;;13.70;99.90;;;;;;5010244;28;20042;-71
2022/07/14 00:43:22;;;;;;;10.25;2.30;;;13.70;99.90;;;;;;5004039;28;20038;-71
2022/07/14 00:45:48;;;;;;;8.10;2.30;;;13.60;99.90;;;;;;5018828;28;20538;-71
2022/07/14 00:48:16;;;;;;;14.05;3.05;;;13.60;99.90;;;;;;5010544;28;20108;-71
2022/07/14 00:50:43;;;;;;;13.82;3.33;;;13.50;99.90;;;;;;5011364;28;20038;-71
2022/07/14 00:53:10;;;;;;;12.30;2.28;;;13.50;99.90;;;;;;5009754;28;20072;-71
2022/07/14 00:55:38;;;;;;;18.27;2.75;;;13.40;99.90;;;;;;5008604;28;20057;-71
2022/07/14 00:58:04;;;;;;;13.55;3.50;;;13.40;99.90;;;;;;5026293;28;20045;-71
2022/07/14 01:00:30;;;;;;;15.07;3.60;;;13.30;99.90;;;;;;5027626;28;20112;-71
2022/07/14 01:02:56;;;;;;;11.90;2.65;;;13.30;99.90;;;;;;5010280;28;20540;-71
2022/07/14 01:05:22;;;;;;;11.52;2.85;;;13.30;99.90;;;;;;5009871;28;20037;-71
2022/07/14 01:07:48;;;;;;;14.95;3.13;;;13.20;99.90;;;;;;5042705;28;20038;-71
2022/07/14 01:10:15;;;;;;;12.60;2.72;;;13.20;99.90;;;;;;5010099;28;20077;-71
2022/07/14 01:12:47;;;;;;;15.55;3.67;;;13.10;99.90;;;;;;5026218;28;20121;-71
2022/07/14 01:15:22;;;;;;;10.95;2.90;;;13.10;99.90;;;;;;5027120;28;20548;-71
2022/07/14 01:17:48;;;;;;;12.38;2.58;;;13.00;99.90;;;;;;5008638;28;20037;-71
2022/07/14 01:20:18;;;;;;;10.55;2.80;;;13.00;99.90;;;;;;5026428;28;20533;-71
2022/07/14 01:22:46;;;;;;;15.13;3.50;;;13.00;99.90;;;;;;5009670;28;20410;-71
2022/07/14 01:25:14;;;;;;;9.10;3.03;;;13.00;99.90;;;;;;5008247;28;20076;-71
2022/07/14 01:27:39;;;;;;;9.77;2.75;;;12.90;99.90;;;;;;5008265;28;20050;-71
2022/07/14 01:30:07;;;;;;;12.93;2.80;;;12.90;99.90;;;;;;5008312;28;20042;-71
2022/07/14 01:32:33;;;;;;;8.02;3.28;;;12.80;99.90;;;;;;5008475;28;20059;-71
2022/07/14 01:34:59;;;;;;;10.68;3.40;;;12.90;99.90;;;;;;5026292;28;20128;-71
2022/07/14 01:37:25;;;;;;;14.00;3.10;;;12.80;99.90;;;;;;5005077;28;20069;-71
2022/07/14 01:39:51;;;;;;;11.25;3.28;;;12.80;99.90;;;;;;5007418;28;20058;-71
2022/07/14 01:42:17;;;;;;;11.52;3.05;;;12.70;99.90;;;;;;5009317;28;20046;-72
2022/07/14 01:44:43;;;;;;;12.57;3.40;;;12.70;99.90;;;;;;5026271;28;20410;-72
2022/07/14 01:47:09;;;;;;;12.05;3.08;;;12.70;99.90;;;;;;5010378;28;20500;-72
2022/07/14 01:49:36;;;;;;;15.25;3.42;;;12.70;99.90;;;;;;5010017;28;20038;-71
2022/07/14 01:52:01;;;;;;;15.07;3.25;;;12.70;99.90;;;;;;4992972;28;20120;-71
2022/07/14 01:54:27;;;;;;;12.18;3.40;;;12.60;99.90;;;;;;5008987;28;20172;-71
2022/07/14 01:56:53;;;;;;;10.55;2.88;;;12.60;99.90;;;;;;5041960;28;20058;-71
2022/07/14 01:59:19;;;;;;;8.15;2.97;;;12.60;99.90;;;;;;5006688;28;20173;-71
2022/07/14 02:01:46;;;;;;;13.35;3.13;;;12.60;99.90;;;;;;5006914;28;20124;-71
2022/07/14 02:04:15;;;;;;;11.45;3.00;;;12.60;99.90;;;;;;5009374;28;20034;-71
2022/07/14 02:06:44;;;;;;;12.23;3.53;;;12.50;99.90;;;;;;5008759;28;20045;-71
2022/07/14 02:09:10;;;;;;;14.68;3.50;;;12.50;99.90;;;;;;5007810;28;20099;-71
2022/07/14 02:14:20;;;;;;;15.02;3.92;;;12.40;99.90;;;;;;5008857;28;20053;-71
2022/07/14 02:16:46;;;;;;;12.75;3.67;;;12.40;99.90;;;;;;5008728;28;20552;-71
2022/07/14 02:19:12;;;;;;;10.80;3.28;;;12.40;99.90;;;;;;5009392;28;20099;-71
2022/07/14 02:21:39;;;;;;;10.23;3.33;;;12.30;99.90;;;;;;5007442;28;20116;-71
2022/07/14 02:24:07;;;;;;;11.10;3.47;;;12.30;99.90;;;;;;5009596;28;20235;-71
2022/07/14 02:26:32;;;;;;;10.68;3.63;;;12.20;99.90;;;;;;5007756;28;20049;-71
2022/07/14 02:28:58;;;;;;;9.68;3.08;;;12.10;99.90;;;;;;5024901;28;20397;-71
2022/07/14 02:31:24;;;;;;;14.70;3.53;;;12.20;99.90;;;;;;5025107;28;20053;-71
2022/07/14 02:33:49;;;;;;;11.90;3.42;;;12.10;99.90;;;;;;5009582;28;20076;-71
2022/07/14 02:36:15;;;;;;;12.77;2.92;;;12.10;99.90;;;;;;5007687;28;20516;-71
2022/07/14 02:38:41;;;;;;;8.52;2.70;;;12.00;99.90;;;;;;5008857;28;20046;-71
2022/07/14 02:41:07;;;;;;;8.55;2.83;;;12.00;99.90;;;;;;4991100;28;20057;-71
2022/07/14 02:43:34;;;;;;;10.18;2.97;;;12.00;99.90;;;;;;5005289;28;20130;-71
2022/07/14 02:46:00;;;;;;;11.77;3.55;;;12.00;99.90;;;;;;4989816;28;20082;-71
2022/07/14 02:48:26;;;;;;;8.93;3.10;;;12.00;99.90;;;;;;5036508;28;20132;-71
2022/07/14 02:51:00;;;;;;;14.48;3.67;;;11.90;99.90;;;;;;5008479;28;20133;-71
2022/07/14 02:53:27;;;;;;;10.90;3.33;;;11.90;99.90;;;;;;5024203;28;20042;-71
2022/07/14 02:55:53;;;;;;;10.05;2.80;;;11.90;99.90;;;;;;5024248;28;20053;-71
2022/07/14 02:58:19;;;;;;;10.05;3.00;;;11.80;99.90;;;;;;5040887;28;20049;-72
2022/07/14 03:00:45;;;;;;;15.73;4.07;;;11.80;99.90;;;;;;5008467;28;20452;-71
2022/07/14 03:03:11;;;;;;;14.52;3.38;;;11.80;99.90;;;;;;5007142;28;20125;-71
2022/07/14 03:05:37;;;;;;;11.73;2.95;;;11.80;99.90;;;;;;5008628;28;20453;-71
2022/07/14 03:08:04;;;;;;;12.45;3.38;;;11.70;99.90;;;;;;5008474;28;20042;-71
2022/07/14 03:10:30;;;;;;;10.07;3.47;;;11.70;99.90;;;;;;5010115;28;20065;-71
2022/07/14 03:12:56;;;;;;;15.02;3.60;;;11.70;99.90;;;;;;5005305;28;20073;-71
2022/07/14 03:15:22;;;;;;;10.88;3.17;;;11.70;99.90;;;;;;5005384;28;20046;-71
2022/07/14 03:17:47;;;;;;;7.97;2.67;;;11.70;99.90;;;;;;5038862;28;20045;-71
2022/07/14 03:20:13;;;;;;;9.60;3.28;;;11.70;99.90;;;;;;5006769;28;20076;-71
2022/07/14 03:22:39;;;;;;;13.02;3.65;;;11.70;99.90;;;;;;5040008;28;20454;-71
2022/07/14 03:25:05;;;;;;;11.48;3.20;;;11.60;99.90;;;;;;5008938;28;20525;-71
2022/07/14 03:27:35;;;;;;;13.95;3.80;;;11.60;99.90;;;;;;5023259;28;20481;-71
2022/07/14 03:30:02;;;;;;;11.18;3.22;;;11.60;99.90;;;;;;5040784;28;20104;-71
2022/07/14 03:32:28;;;;;;;11.23;3.13;;;11.60;99.90;;;;;;5039237;28;20065;-71
2022/07/14 03:34:53;;;;;;;11.63;3.17;;;11.60;99.90;;;;;;5011056;28;20053;-71
2022/07/14 03:37:19;;;;;;;16.23;3.72;;;11.50;99.90;;;;;;5011150;28;20046;-71
2022/07/14 03:39:46;;;;;;;9.98;3.45;;;11.60;99.90;;;;;;5010093;28;20049;-71
2022/07/14 03:42:11;;;;;;;12.65;3.35;;;11.50;99.90;;;;;;5043989;28;20175;-71
2022/07/14 03:44:37;;;;;;;8.95;2.95;;;11.50;99.90;;;;;;5010799;28;20071;-71
2022/07/14 03:47:03;;;;;;;16.05;4.10;;;11.50;99.90;;;;;;5008781;28;20077;-71
2022/07/14 03:49:28;;;;;;;9.40;3.53;;;11.50;99.90;;;;;;5042674;28;20053;-71
2022/07/14 03:51:54;;;;;;;10.88;3.53;;;11.50;99.90;;;;;;5028299;28;20533;-71
2022/07/14 03:54:20;;;;;;;11.70;3.47;;;11.60;99.90;;;;;;5008704;28;20037;-71
2022/07/14 03:56:46;;;;;;;11.68;3.58;;;11.50;99.90;;;;;;5009770;28;20418;-71
2022/07/14 03:59:11;;;;;;;9.55;3.65;;;11.60;99.90;;;;;;5042942;28;20072;-71
2022/07/14 04:01:37;;;;;;;12.07;3.63;;;11.60;99.90;;;;;;5006244;28;20060;-71
2022/07/14 04:04:04;;;;;;;10.38;3.63;;;11.60;99.90;;;;;;5013322;28;20048;-71
2022/07/14 04:06:30;;;;;;;10.43;3.83;;;11.60;99.90;;;;;;5011297;28;20099;-71
2022/07/14 04:08:55;;;;;;;8.88;3.65;;;11.60;99.90;;;;;;4995398;28;20097;-71
2022/07/14 04:11:21;;;;;;;12.77;3.55;;;11.60;99.90;;;;;;5009679;28;20125;-71
2022/07/14 04:13:47;;;;;;;12.75;3.53;;;11.60;99.90;;;;;;5042081;28;20735;-71
2022/07/14 04:16:12;;;;;;;12.75;3.78;;;11.60;99.90;;;;;;5041942;28;20497;-71
2022/07/14 04:18:38;;;;;;;8.77;3.30;;;11.60;99.90;;;;;;5010720;28;20585;-71
2022/07/14 04:21:04;;;;;;;8.57;3.75;;;11.70;99.90;;;;;;5010127;28;20042;-71
2022/07/14 04:23:30;;;;;;;8.23;3.65;;;11.70;99.90;;;;;;5027850;28;20050;-71
2022/07/14 04:25:56;;;;;;;8.88;4.03;;;11.70;99.90;;;;;;5011319;28;20449;-71
2022/07/14 04:28:22;;;;;;;9.25;3.70;;;11.80;99.90;;;;;;4989866;28;20044;-71
2022/07/14 04:30:47;;;;;;;18.23;14.38;;;11.80;99.90;;;;;;5026804;28;20053;-71
2022/07/14 04:33:13;;;;;;;29.77;20.63;;;11.90;99.90;;;;;;5011422;28;20049;-71
2022/07/14 04:35:39;;;;;;;7.80;4.82;;;12.00;99.90;;;;;;5010943;28;20053;-71
2022/07/14 04:38:04;;;;;;;8.27;3.47;;;12.10;99.90;;;;;;4994690;28;20056;-71
2022/07/14 04:40:30;;;;;;;10.45;3.78;;;12.30;99.90;;;;;;5009266;28;20048;-71
2022/07/14 04:42:56;;;;;;;13.68;3.40;;;12.30;99.90;;;;;;5007716;28;20050;-71
2022/07/14 04:45:22;;;;;;;10.13;3.75;;;12.40;99.90;;;;;;5008229;28;20041;-71
2022/07/14 04:47:49;;;;;;;10.00;3.80;;;12.50;99.90;;;;;;5037386;28;20057;-71
2022/07/14 04:52:59;;;;;;;12.00;3.63;;;12.60;99.90;;;;;;5043348;28;20049;-71
2022/07/14 04:55:24;;;;;;;13.57;4.18;;;12.70;99.90;;;;;;5009056;28;20058;-71
2022/07/14 04:57:50;;;;;;;10.70;3.97;;;12.80;99.90;;;;;;5040911;28;20053;-71
2022/07/14 05:00:16;;;;;;;15.77;4.40;;;12.80;99.90;;;;;;5008602;28;20052;-71
2022/07/14 05:02:42;;;;;;;10.95;3.70;;;13.10;99.90;;;;;;5009869;28;20180;-71
2022/07/14 05:05:08;;;;;;;13.32;4.13;;;13.40;99.90;;;;;;5009318;28;20042;-71
2022/07/14 05:07:34;;;;;;;9.73;3.55;;;13.80;99.90;;;;;;5009932;28;20486;-71
2022/07/14 05:10:00;;;;;;;8.18;3.40;;;14.00;99.90;;;;;;4993323;28;20678;-71
2022/07/14 05:12:26;;;;;;;13.10;3.90;;;13.90;99.90;;;;;;5005889;28;20046;-71
2022/07/14 05:14:52;;;;;;;11.38;3.72;;;13.90;99.90;;;;;;4991506;28;20446;-71
2022/07/14 05:17:18;;;;;;;12.30;3.58;;;13.70;99.90;;;;;;5008429;28;20175;-72
2022/07/14 05:19:47;;;;;;;11.98;3.78;;;13.60;99.90;;;;;;5009760;28;20038;-71
2022/07/14 05:22:13;;;;;;;13.40;3.53;;;13.60;99.90;;;;;;5008227;28;20076;-71
2022/07/14 05:24:38;;;;;;;12.40;4.25;;;13.60;99.90;;;;;;5007984;28;20026;-71
2022/07/14 05:27:04;;;;;;;9.18;3.17;;;13.90;99.90;;;;;;5008363;28;20030;-71
2022/07/14 05:29:31;;;;;;;8.20;3.00;;;14.10;99.90;;;;;;5006075;28;20054;-71
2022/07/14 05:32:00;;;;;;;9.00;3.60;;;14.20;99.90;;;;;;5022290;28;20058;-71
2022/07/14 05:34:26;;;;;;;9.50;3.13;;;14.30;99.90;;;;;;5040300;28;20067;-71
2022/07/14 05:36:52;;;;;;;7.70;2.63;;;14.30;99.90;;;;;;5007850;28;20560;-69
2022/07/14 05:39:18;;;;;;;8.23;2.67;;;14.20;99.90;;;;;;5041231;28;20045;-69
2022/07/14 05:41:43;;;;;;;11.40;2.92;;;14.20;99.90;;;;;;5009127;28;20041;-69
2022/07/14 05:44:09;;;;;;;9.38;2.38;;;14.30;99.90;;;;;;5039566;28;20042;-70
2022/07/14 05:46:35;;;;;;;14.48;2.92;;;14.30;99.90;;;;;;5007286;28;20030;-70
2022/07/14 05:49:00;;;;;;;11.60;2.88;;;14.40;99.90;;;;;;5007774;28;20413;-70
2022/07/14 05:51:26;;;;;;;16.20;2.35;;;14.60;99.90;;;;;;5008669;28;20108;-70
2022/07/14 05:53:52;;;;;;;13.45;2.80;;;14.70;99.90;;;;;;5041976;28;20061;-70
2022/07/14 05:56:18;;;;;;;11.85;2.67;;;14.80;99.90;;;;;;5005782;28;20128;-71
2022/07/14 05:58:45;;;;;;;11.52;2.72;;;15.00;99.90;;;;;;5005685;28;20066;-71
2022/07/14 06:01:12;;;;;;;11.10;2.40;;;15.20;99.90;;;;;;5016877;28;20050;-71
2022/07/14 06:03:37;;;;;;;8.75;2.00;;;15.30;99.90;;;;;;5024033;28;20131;-71
2022/07/14 06:06:07;;;;;;;11.43;2.10;;;15.40;99.90;;;;;;5040808;28;20092;-72
2022/07/14 06:08:33;;;;;;;8.45;1.88;;;15.50;99.90;;;;;;5009103;28;20050;-71
2022/07/14 06:10:59;;;;;;;10.13;1.88;;;15.70;99.90;;;;;;5008165;28;20462;-71
2022/07/14 06:13:29;;;;;;;10.32;2.20;;;15.80;99.90;;;;;;4987519;28;20083;-71
2022/07/14 06:15:57;;;;;;;9.40;1.60;;;16.00;99.90;;;;;;5004046;28;20053;-71
2022/07/14 06:18:24;;;;;;;6.53;1.27;;;16.10;99.90;;;;;;5007532;28;20038;-72
2022/07/14 06:20:50;;;;;;;8.75;1.52;;;16.10;99.90;;;;;;5008658;28;20045;-71
2022/07/14 06:23:16;;;;;;;6.93;1.60;;;16.20;99.90;;;;;;4990884;28;20050;-71
2022/07/14 06:25:41;;;;;;;7.30;1.40;;;16.20;99.90;;;;;;5025454;28;20042;-72
2022/07/14 06:28:07;;;;;;;13.68;2.10;;;16.40;99.90;;;;;;5007379;28;20104;-72
2022/07/14 06:30:34;;;;;;;8.60;1.80;;;16.50;99.90;;;;;;5007863;28;20494;-72
2022/07/14 06:33:00;;;;;;;8.45;1.08;;;16.70;99.90;;;;;;5008462;28;20061;-72
2022/07/14 06:35:27;;;;;;;7.22;1.10;;;16.80;99.90;;;;;;5008641;28;20054;-72
2022/07/14 06:37:53;;;;;;;10.10;1.20;;;16.80;99.90;;;;;;5007713;28;20160;-71
2022/07/14 06:40:19;;;;;;;7.07;0.90;;;17.00;99.90;;;;;;5008979;28;20510;-71
2022/07/14 06:42:45;;;;;;;6.47;0.85;;;17.10;99.90;;;;;;4990628;28;20061;-72
2022/07/14 06:45:11;;;;;;;10.70;1.02;;;17.10;99.90;;;;;;4991724;28;20124;-72
2022/07/14 06:47:37;;;;;;;9.32;1.73;;;17.10;99.90;;;;;;5007684;28;20111;-72
2022/07/14 06:50:03;;;;;;;8.10;0.93;;;17.20;99.90;;;;;;5006544;28;20061;-72
2022/07/14 06:52:29;;;;;;;5.28;0.90;;;17.30;99.90;;;;;;5008004;28;20151;-72
2022/07/14 06:54:58;;;;;;;5.78;0.82;;;17.50;99.90;;;;;;5008004;28;20073;-72
2022/07/14 06:57:25;;;;;;;11.45;1.33;;;17.50;99.90;;;;;;5007540;28;20053;-72
2022/07/14 06:59:50;;;;;;;5.28;0.73;;;17.50;99.90;;;;;;5006704;28;20491;-72
2022/07/14 07:02:16;;;;;;;8.30;0.95;;;17.50;99.90;;;;;;5004293;28;20040;-72
2022/07/14 07:04:42;;;;;;;6.32;0.80;;;17.60;99.90;;;;;;5008083;28;20135;-72
2022/07/14 07:07:07;;;;;;;7.50;1.00;;;17.80;99.90;;;;;;4991540;28;20049;-72
2022/07/14 07:09:33;;;;;;;7.53;1.00;;;17.90;99.90;;;;;;5009493;28;20084;-72
2022/07/14 07:11:59;;;;;;;5.82;0.70;;;18.00;99.90;;;;;;5009141;28;20042;-72
2022/07/14 07:14:24;;;;;;;5.97;0.60;;;17.90;99.90;;;;;;5041942;28;20148;-72
2022/07/14 07:16:50;;;;;;;6.55;0.90;;;17.90;99.90;;;;;;5010155;28;20045;-72
2022/07/14 07:19:17;;;;;;;5.53;0.70;;;18.10;99.90;;;;;;5043547;28;20052;-72
2022/07/14 07:21:42;;;;;;;5.75;0.90;;;18.20;99.90;;;;;;5012706;28;20041;-72
2022/07/14 07:24:09;;;;;;;5.65;0.60;;;18.30;99.90;;;;;;5028569;28;20049;-72
2022/07/14 07:26:37;;;;;;;7.03;1.08;;;18.20;99.90;;;;;;5011733;28;20050;-72
2022/07/14 07:29:04;;;;;;;6.93;1.00;;;18.20;99.90;;;;;;5009159;28;20050;-70
2022/07/14 07:31:31;;;;;;;5.40;1.00;;;18.40;99.90;;;;;;5011514;28;20049;-70
2022/07/14 07:33:57;;;;;;;7.72;0.80;;;18.60;99.90;;;;;;5008664;28;20124;-70
2022/07/14 07:36:23;;;;;;;10.15;0.77;;;18.90;99.90;;;;;;5045877;28;20481;-71
2022/07/14 07:38:49;;;;;;;7.65;0.93;;;19.00;99.90;;;;;;5027747;28;20629;-71
2022/07/14 07:41:14;;;;;;;5.40;0.70;;;19.20;99.90;;;;;;5002674;28;20066;-71
2022/07/14 07:43:40;;;;;;;6.53;0.95;;;19.30;99.90;;;;;;5010519;28;20065;-71
2022/07/14 07:46:07;;;;;;;7.15;0.90;;;19.50;99.90;;;;;;5012701;28;20046;-71
2022/07/14 07:48:33;;;;;;;6.63;0.75;;;19.70;99.90;;;;;;5010129;28;20052;-71
2022/07/14 07:50:59;;;;;;;3.30;0.52;;;19.80;99.90;;;;;;5011663;28;20050;-72
2022/07/14 07:53:24;;;;;;;4.78;0.40;;;19.80;99.90;;;;;;5027765;28;20050;-72
2022/07/14 07:55:51;;;;;;;6.82;0.63;;;19.50;99.90;;;;;;5028941;28;20038;-72
2022/07/14 07:58:18;;;;;;;4.40;0.88;;;19.30;99.90;;;;;;5009073;28;20112;-72
2022/07/14 08:00:44;;;;;;;7.13;0.90;;;19.20;99.90;;;;;;4991375;28;20073;-72
2022/07/14 08:03:10;;;;;;;5.45;0.65;;;19.20;99.90;;;;;;5016535;28;20046;-72
2022/07/14 08:05:36;;;;;;;3.70;0.50;;;19.20;99.90;;;;;;5027583;28;20423;-72
2022/07/14 08:08:01;;;;;;;3.20;0.40;;;19.20;99.90;;;;;;5031448;28;20041;-72
2022/07/14 08:10:27;;;;;;;4.15;0.45;;;19.40;99.90;;;;;;4994909;28;20046;-72
2022/07/14 08:12:53;;;;;;;5.13;0.60;;;20.10;99.90;;;;;;4997976;28;20180;-71
2022/07/14 08:15:19;;;;;;;4.13;0.90;;;20.80;98.80;;;;;;4997523;28;20046;-71
2022/07/14 08:17:45;;;;;;;4.03;1.00;;;20.70;95.30;;;;;;4996610;28;20512;-72
2022/07/14 08:20:12;;;;;;;4.40;0.47;;;20.50;95.70;;;;;;4994508;28;20089;-72
2022/07/14 08:22:38;;;;;;;5.70;0.70;;;20.20;96.30;;;;;;5011894;28;20058;-72
2022/07/14 08:25:06;;;;;;;4.80;0.60;;;20.50;98.20;;;;;;5030615;28;20092;-72
2022/07/14 08:27:32;;;;;;;3.42;0.45;;;21.30;98.80;;;;;;5028906;28;20045;-72
2022/07/14 08:29:58;;;;;;;2.58;0.52;;;22.00;94.20;;;;;;4996277;28;20046;-72
2022/07/14 08:32:44;;;;;;;2.63;0.60;;;22.50;92.10;;;;;;5028833;28;20622;-72
2022/07/14 08:35:15;;;;;;;4.05;0.60;;;22.80;85.50;;;;;;4976225;28;20042;-70
2022/07/14 08:37:42;;;;;;;2.88;0.40;;;23.20;87.60;;;;;;5025090;28;20397;-70
2022/07/14 08:40:11;;;;;;;3.80;0.50;;;23.50;84.50;;;;;;5013364;28;20056;-69
2022/07/14 08:42:38;;;;;;;4.55;0.55;;;23.80;86.00;;;;;;5013878;28;20037;-70
2022/07/14 08:45:12;;;;;;;15.27;10.02;;;24.20;84.40;;;;;;4993519;28;20555;-68
2022/07/14 08:47:38;;;;;;;5.82;2.28;;;24.00;75.20;;;;;;5008766;28;20547;-68
2022/07/14 08:50:05;;;;;;;6.32;0.73;;;23.30;76.00;;;;;;5013044;28;20053;-70
2022/07/14 08:52:32;;;;;;;2.13;0.28;;;22.60;75.30;;;;;;5026233;28;20505;-69
2022/07/14 08:54:59;;;;;;;3.92;0.40;;;22.10;76.40;;;;;;5011761;28;20045;-70
2022/07/14 08:57:25;;;;;;;3.05;0.38;;;22.20;76.70;;;;;;5009606;28;20059;-70
2022/07/14 08:59:51;;;;;;;4.97;0.50;;;22.50;77.00;;;;;;5008145;28;20041;-70
2022/07/14 09:02:17;;;;;;;2.03;0.40;;;22.80;76.10;;;;;;5011504;28;20053;-70
2022/07/14 09:04:46;;;;;;;1.73;0.30;;;22.90;75.60;;;;;;4993411;28;20053;-70
2022/07/14 09:07:28;;;;;;;2.38;0.22;;;23.20;74.40;;;;;;5009936;28;20040;-70
2022/07/14 09:10:02;;;;;;;1.83;0.40;;;23.10;72.30;;;;;;5025469;28;20042;-70
2022/07/14 09:12:29;;;;;;;;;;;22.70;70.60;;;;;;4992161;28;20046;-70
2022/07/14 09:17:50;;;;;;;2.53;0.30;;;22.30;75.20;;;;;;5008583;28;20045;-69
2022/07/14 09:20:16;;;;;;;2.13;0.32;;;22.60;69.30;;;;;;5007964;28;20466;-69
2022/07/14 09:22:43;;;;;;;2.60;0.30;;;22.80;71.90;;;;;;5010548;28;20069;-69
2022/07/14 09:25:15;;;;;;;7.82;0.40;;;22.90;68.30;;;;;;5010393;28;20041;-69
2022/07/14 09:27:42;;;;;;;4.47;0.30;;;22.80;69.20;;;;;;5008010;28;20040;-71
2022/07/14 09:30:12;;;;;;;2.75;0.38;;;22.80;69.80;;;;;;5026787;28;20057;-70
2022/07/14 09:32:56;;;;;;;5.88;0.30;;;22.90;69.80;;;;;;5009228;28;20141;-69
2022/07/14 09:35:36;;;;;;;3.38;0.40;;;23.10;68.80;;;;;;4989544;28;20046;-69
2022/07/14 09:38:15;;;;;;;2.20;0.38;;;23.10;71.20;;;;;;4988219;28;20500;-69
2022/07/14 09:40:41;;;;;;;2.75;0.28;;;23.10;70.00;;;;;;5010292;28;20137;-69
2022/07/14 09:43:08;;;;;;;2.75;0.52;;;23.00;69.10;;;;;;4992228;28;20133;-69
2022/07/14 09:45:36;;;;;;;1.88;0.43;;;22.80;69.00;;;;;;4991637;28;20104;-69
2022/07/14 09:48:10;;;;;;;41.85;36.42;;;22.60;69.00;;;;;;5007869;28;20099;-69
2022/07/14 09:50:42;;;;;;;10.85;5.85;;;22.60;70.70;;;;;;5003781;28;20049;-69
2022/07/14 09:53:18;;;;;;;3.67;0.60;;;22.50;71.60;;;;;;5003163;28;20099;-69
2022/07/14 09:55:52;;;;;;;5.70;0.30;;;22.50;73.10;;;;;;4985833;28;20446;-69
2022/07/14 09:58:31;;;;;;;3.22;0.40;;;22.50;73.80;;;;;;5019061;28;20050;-69
2022/07/14 10:01:06;;;;;;;3.95;0.45;;;22.60;74.40;;;;;;5000532;28;20045;-69
2022/07/14 10:03:33;;;;;;;2.83;0.45;;;22.50;71.30;;;;;;5002208;28;20030;-70
2022/07/14 10:06:03;;;;;;;3.50;0.40;;;22.30;71.80;;;;;;5000881;28;20156;-69
2022/07/14 10:08:32;;;;;;;4.47;0.50;;;22.20;73.30;;;;;;4985760;28;20046;-69
2022/07/14 10:10:59;;;;;;;2.83;0.50;;;22.10;73.30;;;;;;5000637;28;20067;-69
2022/07/14 10:13:26;;;;;;;3.05;0.30;;;22.00;73.80;;;;;;4984382;28;20145;-69
2022/07/14 10:15:53;;;;;;;4.05;0.60;;;22.10;73.80;;;;;;5001849;28;20033;-69
2022/07/14 10:18:20;;;;;;;1.67;0.22;;;22.00;72.10;;;;;;4986339;28;20115;-69
2022/07/14 10:20:51;;;;;;;3.33;0.55;;;22.00;72.70;;;;;;5020660;28;20046;-69
2022/07/14 10:23:18;;;;;;;2.50;0.30;;;21.80;71.60;;;;;;5002504;28;20042;-69
2022/07/14 10:25:49;;;;;;;2.55;0.40;;;21.80;74.20;;;;;;5002408;28;20050;-69
2022/07/14 10:28:16;;;;;;;3.35;0.40;;;21.80;74.00;;;;;;5001048;28;20111;-69
2022/07/14 10:31:06;;;;;;;6.93;0.60;;;21.70;73.50;;;;;;5001173;28;20461;-69
2022/07/14 10:33:48;;;;;;;3.30;0.50;;;21.80;74.30;;;;;;5004079;28;20038;-69
2022/07/14 10:36:31;;;;;;;3.70;0.30;;;21.80;73.00;;;;;;5005553;28;20046;-69
2022/07/14 10:39:19;;;;;;;1.48;0.20;;;21.70;72.70;;;;;;5002762;28;20080;-68
2022/07/14 10:42:05;;;;;;;2.97;0.40;;;21.60;74.10;;;;;;5004361;28;20041;-68
2022/07/14 10:44:33;;;;;;;2.95;0.30;;;21.60;73.60;;;;;;4985650;28;20050;-69
2022/07/14 10:47:11;;;;;;;2.28;0.32;;;21.50;74.80;;;;;;5003520;28;20057;-69
2022/07/14 10:50:05;;;;;;;4.07;0.40;;;21.50;73.80;;;;;;5003140;28;20080;-69
2022/07/14 10:52:33;;;;;;;3.30;0.50;;;21.50;74.40;;;;;;5026743;28;20714;-69
2022/07/14 10:55:25;;;;;;;1.95;0.20;;;21.50;75.80;;;;;;5004284;28;20049;-68
2022/07/14 10:58:00;;;;;;;2.90;0.30;;;21.60;73.10;;;;;;4981016;28;20061;-68
2022/07/14 11:00:43;;;;;;;3.17;0.38;;;21.70;72.50;;;;;;5016593;28;20064;-70
2022/07/14 11:03:19;;;;;;;1.83;0.22;;;21.80;72.60;;;;;;4998985;28;20046;-69
2022/07/14 11:06:18;;;;;;;3.00;0.50;;;22.00;74.00;;;;;;5007735;28;20377;-69
2022/07/14 11:09:04;;;;;;;3.80;0.30;;;22.10;73.20;;;;;;4978345;28;20378;-69
2022/07/14 11:11:30;;;;;;;11.75;8.40;;;22.10;74.10;;;;;;5003611;28;20497;-69
2022/07/14 11:14:06;;;;;;;60.30;53.72;;;22.10;74.60;;;;;;5004460;28;20065;-69
2022/07/14 11:16:47;;;;;;;3.85;0.57;;;22.10;74.70;;;;;;4998893;28;20042;-69
2022/07/14 11:19:35;;;;;;;2.70;0.50;;;22.10;72.70;;;;;;5002440;28;20310;-69
2022/07/14 11:22:11;;;;;;;6.47;0.43;;;21.90;74.70;;;;;;5019819;28;20046;-69
2022/07/14 11:24:45;;;;;;;2.63;0.50;;;22.00;75.20;;;;;;5004596;28;20049;-69
2022/07/14 11:27:32;;;;;;;2.03;0.30;;;21.90;76.00;;;;;;5002444;28;20041;-69
2022/07/14 11:30:27;;;;;;;2.78;0.30;;;21.70;75.00;;;;;;4986104;28;20057;-68
2022/07/14 11:33:07;;;;;;;1.42;0.25;;;21.70;74.80;;;;;;4989259;28;20100;-68
2022/07/14 11:38:39;;;;;;;3.67;0.57;;;21.80;74.80;;;;;;5004661;28;20044;-69
2022/07/14 11:41:10;;;;;;;2.60;0.30;;;21.80;73.70;;;;;;5007718;28;20440;-69
2022/07/14 11:43:37;;;;;;;3.60;0.45;;;21.70;75.70;;;;;;4973094;28;20502;-69
2022/07/14 11:46:06;;;;;;;1.75;0.30;;;21.80;74.90;;;;;;5005129;28;20038;-69
2022/07/14 11:48:35;;;;;;;2.53;0.22;;;21.90;76.50;;;;;;5007847;28;20041;-69
2022/07/14 11:51:07;;;;;;;1.88;0.28;;;22.00;77.20;;;;;;5018904;28;20080;-69
2022/07/14 11:53:34;;;;;;;1.77;0.30;;;22.10;76.20;;;;;;5006666;28;20050;-69
2022/07/14 11:56:01;;;;;;;2.95;0.30;;;22.10;74.50;;;;;;5010696;28;20056;-72
2022/07/14 11:58:29;;;;;;;0.82;0.22;;;22.00;73.30;;;;;;4975770;28;20050;-72
2022/07/14 12:00:55;;;;;;;2.58;0.45;;;21.90;72.70;;;;;;4994793;28;20057;-72
2022/07/14 12:03:23;;;;;;;2.55;0.30;;;22.00;73.70;;;;;;4980061;28;20565;-72
2022/07/14 12:05:57;;;;;;;2.00;0.30;;;22.30;73.40;;;;;;4992337;28;20038;-72
2022/07/14 12:08:26;;;;;;;2.25;0.30;;;22.50;71.80;;;;;;5029452;28;20390;-72
2022/07/14 12:10:52;;;;;;;2.85;0.30;;;22.90;71.30;;;;;;4992537;28;20719;-71
2022/07/14 12:13:18;;;;;;;2.45;0.30;;;23.00;72.20;;;;;;5024744;28;20073;-72
2022/07/14 12:15:44;;;;;;;2.72;0.60;;;23.40;72.40;;;;;;4993401;28;20117;-72
2022/07/14 12:18:11;;;;;;;1.80;0.40;;;23.80;71.20;;;;;;5026681;28;20038;-72
2022/07/14 12:20:44;;;;;;;2.17;0.57;;;23.90;68.30;;;;;;4992783;28;20132;-71
2022/07/14 12:23:11;;;;;;;2.28;0.25;;;23.70;67.30;;;;;;5010637;28;20049;-72
2022/07/14 12:25:46;;;;;;;3.85;0.43;;;23.30;69.20;;;;;;5006207;28;20107;-71
2022/07/14 12:28:17;;;;;;;2.67;0.40;;;23.00;69.00;;;;;;5012650;28;20046;-72
2022/07/14 12:30:51;;;;;;;5.63;0.63;;;22.70;69.10;;;;;;5031330;28;20065;-71
2022/07/14 12:33:47;;;;;;;33.55;25.98;;;22.60;70.70;;;;;;4999172;28;20658;-71
2022/07/14 12:36:18;;;;;;;19.48;17.08;;;22.40;69.70;;;;;;5009279;28;20428;-70
2022/07/14 12:38:45;;;;;;;6.13;1.77;;;22.20;71.60;;;;;;5014987;28;20393;-74
2022/07/14 12:41:13;;;;;;;2.08;0.30;;;22.00;71.60;;;;;;4986644;28;20050;-73
2022/07/14 12:43:41;;;;;;;4.63;0.40;;;21.90;72.00;;;;;;4998395;28;20050;-71
2022/07/14 12:46:16;;;;;;;2.67;0.25;;;21.70;73.40;;;;;;4997090;28;20065;-72
2022/07/14 12:48:51;;;;;;;3.92;0.55;;;21.70;74.90;;;;;;5016985;28;20444;-71
2022/07/14 12:51:32;;;;;;;1.73;0.40;;;21.70;75.80;;;;;;4999661;28;20099;-71
2022/07/14 12:54:01;;;;;;;2.40;0.43;;;21.60;75.10;;;;;;5014867;28;20076;-71
2022/07/14 12:56:29;;;;;;;3.95;0.60;;;21.50;74.80;;;;;;4997735;28;20067;-68
2022/07/14 12:58:59;;;;;;;2.58;0.40;;;21.40;74.10;;;;;;5029835;28;20100;-74
2022/07/14 13:01:25;;;;;;;2.30;0.30;;;21.30;74.20;;;;;;4999363;28;20133;-71